Time;durP1;ratioP1;P1;durP2;ratioP2;P2;SDS_P1;SDS_P2;PMS_P1;PMS_P2;Temp;Humidity;BMP_temperature;BMP_pressure;BME280_temperature;BME280_humidity;BME280_pressure;Samples;Min_cycle;Max_cycle;Signal;HPM_P1;HPM_P2
2022/08/17 00:00:24;;;;;;;;;;;;;;;19.42;92.22;100885.84;1024166;29;20317;-78
2022/08/17 00:01:18;;;;;;;;;;;;;;;19.36;92.82;100890.44;1026090;28;19976;-77
2022/08/17 00:01:54;;;;;;;;;;;;;;;19.43;92.96;100882.88;1028507;28;20410;-78
2022/08/17 00:02:26;;;;;;;;;;;;;;;19.15;93.27;100886.16;1028115;28;19922;-78
2022/08/17 00:02:59;;;;;;;;;;;;;;;19.17;93.99;100885.88;1028498;28;19988;-77
2022/08/17 00:03:34;;;;;;;;;;;;;;;19.29;94.01;100887.22;1028287;28;19922;-78
2022/08/17 00:04:07;;;;;;;;;;;;;;;19.42;93.04;100886.66;1023899;29;20291;-77
2022/08/17 00:04:42;;;;;;;;;;;;;;;19.43;92.86;100892.84;1024147;29;20414;-78
2022/08/17 00:05:20;;;;;;;;;;;;;;;19.35;92.92;100891.53;1024058;29;19945;-78
2022/08/17 00:05:54;;;;;;;;;;;;;;;19.41;92.84;100895.03;1026144;28;19922;-78
2022/08/17 00:06:26;;;;;;;;;;;;;;;19.39;92.91;100894.50;1028003;28;19966;-77
2022/08/17 00:06:58;;;;;;;;;;;;;;;19.27;93.28;100892.09;1028344;28;19930;-77
2022/08/17 00:07:30;;;;;;;;;;;;;;;19.26;93.46;100895.88;1023852;28;20307;-77
2022/08/17 00:08:01;;;;;;;;;;;;;;;19.27;93.88;100894.81;1024483;28;19926;-78
2022/08/17 00:08:34;;;;;;;;;;;;;;;19.29;93.75;100892.63;1024003;28;19929;-78
2022/08/17 00:09:05;;;;;;;;;;;;;;;19.36;93.80;100890.44;1024554;28;19953;-77
2022/08/17 00:09:37;;;;;;;;;;;;;;;19.28;93.59;100892.91;1024132;28;20387;-77
2022/08/17 00:10:09;;;;;;;;;;;;;;;19.29;93.86;100892.63;1020400;29;19922;-78
2022/08/17 00:10:41;;;;;;;;;;;;;;;19.37;93.71;100888.56;1020380;29;19922;-77
2022/08/17 00:11:24;;;;;;;;;;;;;;;19.46;93.50;100886.94;1019584;29;19923;-77
2022/08/17 00:11:56;;;;;;;;;;;;;;;19.62;92.68;100885.00;1021335;29;19966;-78
2022/08/17 00:12:47;;;;;;;;;;;;;;;19.67;92.41;100888.50;1019940;29;19927;-77
2022/08/17 00:13:24;;;;;;;;;;;;;;;19.71;92.20;100888.75;1020110;29;19923;-78
2022/08/17 00:13:57;;;;;;;;;;;;;;;19.71;92.02;100878.75;1019807;29;19929;-77
2022/08/17 00:14:28;;;;;;;;;;;;;;;19.69;91.37;100885.53;1020242;29;20317;-77
2022/08/17 00:15:00;;;;;;;;;;;;;;;19.71;91.47;100888.75;1019879;29;19926;-77
2022/08/17 00:15:31;;;;;;;;;;;;;;;19.75;91.82;100889.84;1020927;28;19923;-78
2022/08/17 00:16:05;;;;;;;;;;;;;;;19.77;91.52;100887.69;1024541;28;19923;-78
2022/08/17 00:16:38;;;;;;;;;;;;;;;19.77;91.32;100886.88;1024621;28;19922;-78
2022/08/17 00:17:27;;;;;;;;;;;;;;;19.77;90.78;100884.97;1024344;28;19927;-77
2022/08/17 00:17:59;;;;;;;;;;;;;;;19.78;90.85;100889.28;1015909;29;20398;-78
2022/08/17 00:18:32;;;;;;;;;;;;;;;19.84;90.66;100881.97;1016042;29;19923;-77
2022/08/17 00:19:24;;;;;;;;;;;;;;;19.88;90.48;100888.44;1016405;29;19923;-77
2022/08/17 00:19:55;;;;;;;;;;;;;;;19.90;90.45;100891.66;1021540;29;19930;-77
2022/08/17 00:20:27;;;;;;;;;;;;;;;19.93;90.23;100889.22;1024199;29;19930;-77
2022/08/17 00:21:06;;;;;;;;;;;;;;;19.95;90.22;100892.44;1023978;29;19922;-77
2022/08/17 00:21:42;;;;;;;;;;;;;;;19.95;90.37;100886.22;1026255;28;19926;-78
2022/08/17 00:22:33;;;;;;;;;;;;;;;20.00;90.83;100887.03;1028469;28;20309;-78
2022/08/17 00:23:08;;;;;;;;;;;;;;;20.02;91.75;100884.88;1028319;28;20060;-79
2022/08/17 00:23:40;;;;;;;;;;;;;;;20.04;92.65;100893.50;1028424;28;20077;-79
2022/08/17 00:24:19;;;;;;;;;;;;;;;20.06;93.47;100880.53;1028299;28;19921;-79
2022/08/17 00:24:51;;;;;;;;;;;;;;;20.09;95.02;100883.75;1027934;28;19937;-79
2022/08/17 00:25:22;;;;;;;;;;;;;;;20.05;94.21;100886.22;1028162;28;19922;-79
2022/08/17 00:25:54;;;;;;;;;;;;;;;20.05;95.80;100883.50;1028082;28;19922;-79
2022/08/17 00:26:25;;;;;;;;;;;;;;;19.95;95.15;100883.53;1027877;28;20018;-79
2022/08/17 00:27:16;;;;;;;;;;;;;;;19.74;94.83;100877.41;1017648;29;19954;-79
2022/08/17 00:27:47;;;;;;;;;;;;;;;19.78;95.79;100873.06;1011782;29;19951;-79
2022/08/17 00:28:19;;;;;;;;;;;;;;;19.83;96.09;100880.34;1012356;29;19923;-79
2022/08/17 00:28:51;;;;;;;;;;;;;;;19.70;96.37;100881.75;1015480;29;19923;-79
2022/08/17 00:29:22;;;;;;;;;;;;;;;19.79;96.72;100879.28;1017365;29;19923;-79
2022/08/17 00:29:54;;;;;;;;;;;;;;;19.94;96.68;100876.50;1019541;29;19922;-78
2022/08/17 00:30:25;;;;;;;;;;;;;;;19.93;95.25;100877.59;1020205;29;19923;-78
2022/08/17 00:30:58;;;;;;;;;;;;;;;19.86;94.92;100875.19;1020061;29;19923;-78
2022/08/17 00:31:29;;;;;;;;;;;;;;;19.92;94.59;100875.97;1020243;29;19923;-78
2022/08/17 00:32:02;;;;;;;;;;;;;;;19.94;93.61;100871.91;1024029;28;19922;-78
2022/08/17 00:32:53;;;;;;;;;;;;;;;20.00;92.76;100870.00;1023966;29;20401;-78
2022/08/17 00:33:45;;;;;;;;;;;;;;;20.02;92.78;100868.66;1023918;28;20046;-77
2022/08/17 00:34:16;;;;;;;;;;;;;;;19.98;92.91;100874.84;1021306;29;19926;-78
2022/08/17 00:34:48;;;;;;;;;;;;;;;19.98;92.77;100875.66;1023874;29;19938;-77
2022/08/17 00:35:22;;;;;;;;;;;;;;;19.98;92.63;100875.66;1023419;29;19933;-78
2022/08/17 00:35:53;;;;;;;;;;;;;;;19.99;92.46;100874.59;1018115;29;19926;-78
2022/08/17 00:36:25;;;;;;;;;;;;;;;19.96;93.24;100874.34;1023784;29;19922;-73
2022/08/17 00:36:57;;;;;;;;;;;;;;;19.87;94.01;100881.41;1024042;29;19977;-74
2022/08/17 00:37:28;;;;;;;;;;;;;;;19.83;94.24;100875.75;1024526;28;19922;-74
2022/08/17 00:38:00;;;;;;;;;;;;;;;19.82;95.37;100878.75;1027818;28;19922;-74
2022/08/17 00:38:32;;;;;;;;;;;;;;;19.85;95.61;100875.47;1028359;28;19930;-74
2022/08/17 00:39:03;;;;;;;;;;;;;;;19.93;95.22;100878.41;1027703;28;19922;-74
2022/08/17 00:39:35;;;;;;;;;;;;;;;19.86;94.47;100869.78;1027833;28;20012;-73
2022/08/17 00:40:09;;;;;;;;;;;;;;;19.93;95.11;100883.00;1027735;28;19929;-73
2022/08/17 00:40:45;;;;;;;;;;;;;;;19.92;94.22;100871.38;1027928;28;20101;-73
2022/08/17 00:41:22;;;;;;;;;;;;;;;19.95;93.29;100873.53;1023541;28;19929;-73
2022/08/17 00:41:54;;;;;;;;;;;;;;;20.02;92.84;100874.06;1024218;28;20035;-73
2022/08/17 00:42:28;;;;;;;;;;;;;;;20.01;92.83;100877.84;1024028;28;19923;-73
2022/08/17 00:43:14;;;;;;;;;;;;;;;20.00;92.86;100878.94;1023899;28;19922;-73
2022/08/17 00:43:47;;;;;;;;;;;;;;;20.04;92.83;100873.78;1019756;29;19923;-78
2022/08/17 00:44:19;;;;;;;;;;;;;;;20.03;92.67;100872.97;1019854;29;19922;-78
2022/08/17 00:44:50;;;;;;;;;;;;;;;20.04;92.52;100876.47;1019891;29;19929;-78
2022/08/17 00:45:22;;;;;;;;;;;;;;;20.06;92.17;100875.09;1021213;28;19929;-78
2022/08/17 00:45:54;;;;;;;;;;;;;;;20.02;92.77;100873.25;1027830;28;20409;-78
2022/08/17 00:46:27;;;;;;;;;;;;;;;20.00;92.73;100873.53;1027511;28;20230;-78
2022/08/17 00:46:59;;;;;;;;;;;;;;;20.00;93.02;100876.22;1019702;29;20409;-78
2022/08/17 00:47:30;;;;;;;;;;;;;;;20.00;92.53;100876.22;1019978;29;20392;-78
2022/08/17 00:48:02;;;;;;;;;;;;;;;20.00;92.41;100870.81;1015186;29;19923;-78
2022/08/17 00:48:41;;;;;;;;;;;;;;;19.94;93.46;100877.31;1015702;29;19991;-78
2022/08/17 00:49:13;;;;;;;;;;;;;;;19.98;93.26;100878.38;1015894;29;19995;-78
2022/08/17 00:49:45;;;;;;;;;;;;;;;20.03;92.57;100880.28;1017562;29;19923;-78
2022/08/17 00:50:17;;;;;;;;;;;;;;;19.99;92.73;100880.00;1023396;29;19930;-78
2022/08/17 00:50:56;;;;;;;;;;;;;;;20.01;92.74;100872.44;1019683;29;19938;-78
2022/08/17 00:51:32;;;;;;;;;;;;;;;20.04;92.29;100871.06;1019387;29;19922;-77
2022/08/17 00:52:07;;;;;;;;;;;;;;;20.06;92.13;100875.09;1019118;29;19923;-78
2022/08/17 00:52:44;;;;;;;;;;;;;;;20.05;91.79;100873.50;1019693;29;20378;-73
2022/08/17 00:53:16;;;;;;;;;;;;;;;20.04;91.98;100871.88;1019901;29;19923;-78
2022/08/17 00:53:53;;;;;;;;;;;;;;;20.08;91.69;100871.31;1019170;29;19923;-77
2022/08/17 00:54:26;;;;;;;;;;;;;;;20.04;91.94;100866.47;1019993;29;19927;-78
2022/08/17 00:54:57;;;;;;;;;;;;;;;20.04;91.90;100871.88;1019704;29;19934;-77
2022/08/17 00:55:29;;;;;;;;;;;;;;;20.02;91.90;100874.06;1016583;29;19930;-78
2022/08/17 00:56:02;;;;;;;;;;;;;;;20.04;92.02;100877.28;1016866;29;19929;-78
2022/08/17 00:56:35;;;;;;;;;;;;;;;20.02;92.20;100871.34;1020357;29;19923;-78
2022/08/17 00:57:17;;;;;;;;;;;;;;;20.01;92.47;100867.03;1020572;29;19922;-78
2022/08/17 00:57:49;;;;;;;;;;;;;;;20.02;92.17;100874.06;1022026;29;19928;-78
2022/08/17 00:58:25;;;;;;;;;;;;;;;19.98;92.30;100875.66;1015969;29;19922;-78
2022/08/17 00:59:06;;;;;;;;;;;;;;;19.98;92.85;100883.78;1021533;29;19926;-78
2022/08/17 00:59:39;;;;;;;;;;;;;;;19.99;92.53;100880.00;1019554;29;19922;-78
2022/08/17 01:00:20;;;;;;;;;;;;;;;19.94;93.04;100881.91;1019386;29;19930;-77
2022/08/17 01:00:51;;;;;;;;;;;;;;;19.86;94.26;100875.19;1019731;29;19923;-78
2022/08/17 01:01:23;;;;;;;;;;;;;;;19.84;94.67;100877.38;1019467;29;20005;-78
2022/08/17 01:01:54;;;;;;;;;;;;;;;19.86;95.35;100875.19;1021479;29;20007;-78
2022/08/17 01:02:26;;;;;;;;;;;;;;;19.80;95.81;100876.31;1023771;29;19929;-78
2022/08/17 01:02:58;;;;;;;;;;;;;;;19.81;95.89;100877.94;1023473;29;19922;-78
2022/08/17 01:03:30;;;;;;;;;;;;;;;19.76;96.37;100880.66;1023325;29;19945;-78
2022/08/17 01:04:02;;;;;;;;;;;;;;;19.78;97.18;100878.47;1023586;29;19922;-78
2022/08/17 01:04:33;;;;;;;;;;;;;;;19.78;96.72;100878.47;1022900;29;19922;-78
2022/08/17 01:05:05;;;;;;;;;;;;;;;19.77;96.81;100881.47;1020589;29;19923;-78
2022/08/17 01:05:38;;;;;;;;;;;;;;;19.82;96.73;100884.16;1019881;29;19958;-78
2022/08/17 01:06:12;;;;;;;;;;;;;;;19.79;96.86;100882.81;1022185;28;20017;-78
2022/08/17 01:06:45;;;;;;;;;;;;;;;19.80;97.18;100880.91;1023554;29;19922;-78
2022/08/17 01:07:17;;;;;;;;;;;;;;;19.74;97.38;100877.41;1019783;29;20862;-78
2022/08/17 01:07:49;;;;;;;;;;;;;;;19.77;97.65;100876.88;1021085;29;19923;-78
2022/08/17 01:08:23;;;;;;;;;;;;;;;19.80;97.48;100880.91;1023526;29;19930;-78
2022/08/17 01:08:55;;;;;;;;;;;;;;;19.82;97.56;100876.84;1023588;29;19952;-78
2022/08/17 01:09:28;;;;;;;;;;;;;;;19.82;97.21;100876.84;1023510;29;19929;-78
2022/08/17 01:09:59;;;;;;;;;;;;;;;19.74;97.05;100877.41;1023999;29;19926;-78
2022/08/17 01:10:52;;;;;;;;;;;;;;;19.77;97.28;100870.66;1022946;29;19977;-78
2022/08/17 01:11:35;;;;;;;;;;;;;;;19.75;96.95;100877.16;1016678;29;20018;-78
2022/08/17 01:12:07;;;;;;;;;;;;;;;19.80;97.66;100875.50;1020033;29;19923;-78
2022/08/17 01:12:39;;;;;;;;;;;;;;;19.79;97.17;100879.28;1019813;29;19922;-78
2022/08/17 01:13:10;;;;;;;;;;;;;;;19.79;96.83;100872.00;1022006;29;19975;-78
2022/08/17 01:13:43;;;;;;;;;;;;;;;19.73;96.53;100875.81;1019850;29;19930;-78
2022/08/17 01:14:14;;;;;;;;;;;;;;;19.74;96.87;100882.81;1020283;29;19923;-78
2022/08/17 01:14:46;;;;;;;;;;;;;;;19.66;96.26;100880.66;1023659;29;20314;-78
2022/08/17 01:15:17;;;;;;;;;;;;;;;19.55;96.27;100874.50;1024553;28;19929;-78
2022/08/17 01:15:54;;;;;;;;;;;;;;;19.53;97.05;100871.28;1027294;28;20049;-78
2022/08/17 01:16:29;;;;;;;;;;;;;;;19.59;96.96;100874.75;1023776;29;19922;-78
2022/08/17 01:17:01;;;;;;;;;;;;;;;19.60;96.56;100871.78;1019413;29;19923;-78
2022/08/17 01:17:32;;;;;;;;;;;;;;;19.61;96.47;100878.00;1019901;29;20419;-78
2022/08/17 01:18:04;;;;;;;;;;;;;;;19.68;96.13;100867.69;1020456;29;19926;-78
2022/08/17 01:18:36;;;;;;;;;;;;;;;19.72;95.93;100864.19;1019764;29;19934;-78
2022/08/17 01:19:15;;;;;;;;;;;;;;;19.78;95.09;100867.66;1019651;29;19938;-78
2022/08/17 01:19:46;;;;;;;;;;;;;;;19.84;94.50;100865.75;1021042;29;19922;-78
2022/08/17 01:20:18;;;;;;;;;;;;;;;19.84;93.80;100861.16;1025460;28;19930;-78
2022/08/17 01:20:50;;;;;;;;;;;;;;;19.85;93.71;100868.19;1027295;28;20297;-78
2022/08/17 01:21:31;;;;;;;;;;;;;;;19.86;93.46;100856.28;1027214;28;19922;-78
2022/08/17 01:22:05;;;;;;;;;;;;;;;19.91;92.99;100856.25;1023746;28;19922;-77
2022/08/17 01:22:37;;;;;;;;;;;;;;;19.93;92.81;100854.06;1019702;29;19923;-78
2022/08/17 01:23:08;;;;;;;;;;;;;;;19.93;92.18;100853.25;1019636;29;19923;-77
2022/08/17 01:23:46;;;;;;;;;;;;;;;19.91;92.40;100855.44;1019759;29;19930;-77
2022/08/17 01:24:18;;;;;;;;;;;;;;;19.92;92.45;100855.16;1021203;29;20351;-77
2022/08/17 01:24:52;;;;;;;;;;;;;;;19.90;92.21;100851.13;1023949;28;19922;-73
2022/08/17 01:25:23;;;;;;;;;;;;;;;19.90;92.31;100846.53;1019693;29;20342;-77
2022/08/17 01:25:55;;;;;;;;;;;;;;;19.88;92.24;100856.00;1017997;29;19929;-77
2022/08/17 01:26:27;;;;;;;;;;;;;;;19.88;92.22;100856.81;1015855;29;20402;-77
2022/08/17 01:26:59;;;;;;;;;;;;;;;19.91;91.85;100845.44;1016347;29;19922;-77
2022/08/17 01:27:31;;;;;;;;;;;;;;;19.94;91.34;100852.19;1017346;29;19923;-73
2022/08/17 01:28:03;;;;;;;;;;;;;;;19.94;91.31;100852.19;1020543;29;20383;-73
2022/08/17 01:28:35;;;;;;;;;;;;;;;19.93;90.95;100854.06;1019626;29;20302;-74
2022/08/17 01:29:25;;;;;;;;;;;;;;;19.92;90.92;100852.44;1015802;29;19923;-73
2022/08/17 01:29:58;;;;;;;;;;;;;;;19.92;90.66;100851.66;1015677;29;19923;-73
2022/08/17 01:30:29;;;;;;;;;;;;;;;19.92;90.68;100849.75;1014919;29;19923;-74
2022/08/17 01:31:23;;;;;;;;;;;;;;;19.92;90.51;100848.94;1015610;29;19965;-73
2022/08/17 01:31:55;;;;;;;;;;;;;;;19.92;90.40;100852.44;1011899;29;19930;-73
2022/08/17 01:32:29;;;;;;;;;;;;;;;19.90;90.51;100846.53;1017711;29;19931;-74
2022/08/17 01:33:00;;;;;;;;;;;;;;;19.91;90.44;100848.13;1020849;29;19923;-73
2022/08/17 01:33:32;;;;;;;;;;;;;;;19.92;90.14;100849.75;1023297;29;19922;-74
2022/08/17 01:34:05;;;;;;;;;;;;;;;19.92;90.28;100857.88;971998;29;1515392;-73
2022/08/17 01:34:37;;;;;;;;;;;;;;;19.91;90.14;100850.84;1024687;28;19922;-74
2022/08/17 01:35:20;;;;;;;;;;;;;;;19.86;90.30;100848.16;1027794;28;19969;-74
2022/08/17 01:35:52;;;;;;;;;;;;;;;19.72;90.46;100852.53;1027314;28;19929;-74
2022/08/17 01:36:26;;;;;;;;;;;;;;;19.82;90.21;100849.00;1021857;28;20014;-73
2022/08/17 01:36:58;;;;;;;;;;;;;;;19.83;90.30;100848.72;1025089;28;19923;-74
2022/08/17 01:37:34;;;;;;;;;;;;;;;19.81;90.18;100840.09;1023891;28;19929;-74
2022/08/17 01:38:06;;;;;;;;;;;;;;;19.84;89.91;100844.13;1019760;29;19923;-73
2022/08/17 01:38:38;;;;;;;;;;;;;;;19.87;89.65;100843.56;1019668;29;19975;-74
2022/08/17 01:39:11;;;;;;;;;;;;;;;19.84;89.39;100844.13;1019468;29;19922;-73
2022/08/17 01:39:50;;;;;;;;;;;;;;;19.84;89.35;100850.34;1019849;29;19923;-74
2022/08/17 01:40:22;;;;;;;;;;;;;;;19.84;89.08;100844.94;1015845;29;19923;-73
2022/08/17 01:40:56;;;;;;;;;;;;;;;19.84;89.09;100849.53;1017733;29;19931;-74
2022/08/17 01:41:28;;;;;;;;;;;;;;;19.84;88.98;100844.94;1019539;29;19922;-74
2022/08/17 01:42:03;;;;;;;;;;;;;;;19.82;88.81;100847.09;1017044;29;19923;-73
2022/08/17 01:42:36;;;;;;;;;;;;;;;19.81;88.86;100845.50;1019620;29;20310;-73
2022/08/17 01:43:34;;;;;;;;;;;;;;;19.80;89.04;100834.97;1022016;28;19930;-74
2022/08/17 01:44:06;;;;;;;;;;;;;;;19.77;88.76;100836.31;1024542;28;19929;-78
2022/08/17 01:44:38;;;;;;;;;;;;;;;19.77;88.84;100849.03;1023711;29;19922;-78
2022/08/17 01:45:15;;;;;;;;;;;;;;;19.75;88.58;100838.50;1021225;29;20366;-77
2022/08/17 01:45:48;;;;;;;;;;;;;;;19.74;88.81;100839.59;1016157;29;19930;-78
2022/08/17 01:46:34;;;;;;;;;;;;;;;19.76;88.18;100842.81;1021205;29;19929;-77
2022/08/17 01:47:06;;;;;;;;;;;;;;;19.74;88.15;100837.69;1019857;29;19930;-78
2022/08/17 01:47:37;;;;;;;;;;;;;;;19.73;88.11;100843.38;1023027;28;20502;-78
2022/08/17 01:48:11;;;;;;;;;;;;;;;19.73;88.35;100843.38;1023839;28;19922;-78
2022/08/17 01:48:46;;;;;;;;;;;;;;;19.71;88.13;100834.72;1019764;29;20295;-78
2022/08/17 01:49:18;;;;;;;;;;;;;;;19.69;88.19;100842.28;1019593;29;19981;-78
2022/08/17 01:49:49;;;;;;;;;;;;;;;19.69;88.19;100843.09;1013989;29;19923;-78
2022/08/17 01:50:26;;;;;;;;;;;;;;;19.67;88.03;100839.06;1015593;29;19970;-77
2022/08/17 01:50:57;;;;;;;;;;;;;;;19.65;88.26;100842.03;1019249;29;20303;-74
2022/08/17 01:51:31;;;;;;;;;;;;;;;19.66;88.21;100845.53;1020644;29;19931;-73
2022/08/17 01:52:07;;;;;;;;;;;;;;;19.69;87.91;100847.69;1020025;29;19981;-73
2022/08/17 01:52:38;;;;;;;;;;;;;;;19.67;87.70;100839.06;1015926;29;19923;-74
2022/08/17 01:53:10;;;;;;;;;;;;;;;19.65;87.66;100842.03;1015734;29;19938;-73
2022/08/17 01:53:44;;;;;;;;;;;;;;;19.62;87.73;100839.06;1016911;29;20375;-74
2022/08/17 01:54:16;;;;;;;;;;;;;;;19.60;87.94;100841.25;1016579;29;19927;-73
2022/08/17 01:54:48;;;;;;;;;;;;;;;19.59;87.98;100843.16;1020709;29;19922;-73
2022/08/17 01:55:21;;;;;;;;;;;;;;;19.55;88.27;100841.28;1019708;29;20428;-74
2022/08/17 01:55:59;;;;;;;;;;;;;;;19.58;88.03;100843.41;1016830;29;19923;-73
2022/08/17 01:56:31;;;;;;;;;;;;;;;19.42;88.55;100848.03;1019360;29;20240;-73
2022/08/17 01:57:03;;;;;;;;;;;;;;;19.42;89.24;100843.44;1021268;29;19923;-74
2022/08/17 01:57:35;;;;;;;;;;;;;;;19.43;89.10;100839.63;1017473;29;19923;-74
2022/08/17 01:58:08;;;;;;;;;;;;;;;19.47;89.10;100836.41;1020664;29;19930;-73
2022/08/17 01:58:40;;;;;;;;;;;;;;;19.51;88.59;100840.19;1021672;28;19974;-73
2022/08/17 01:59:12;;;;;;;;;;;;;;;19.50;88.41;100838.56;1017883;29;19966;-74
2022/08/17 01:59:46;;;;;;;;;;;;;;;19.44;88.67;100835.84;1015441;29;20697;-74
2022/08/17 02:00:17;;;;;;;;;;;;;;;19.45;88.75;100847.50;1015847;29;20327;-73
2022/08/17 02:00:50;;;;;;;;;;;;;;;19.39;88.82;100843.97;1012317;29;19924;-74
2022/08/17 02:01:33;;;;;;;;;;;;;;;19.37;88.98;100843.44;1021030;29;19922;-74
2022/08/17 02:02:06;;;;;;;;;;;;;;;19.27;89.81;100835.38;1023537;29;19929;-74
2022/08/17 02:02:38;;;;;;;;;;;;;;;19.29;89.59;100844.00;1026370;28;19922;-74
2022/08/17 02:03:09;;;;;;;;;;;;;;;19.28;89.65;100841.59;1028085;28;19929;-74
2022/08/17 02:03:41;;;;;;;;;;;;;;;19.27;89.30;100840.78;1027723;28;19922;-74
2022/08/17 02:04:30;;;;;;;;;;;;;;;19.11;90.36;100848.09;1027960;28;19929;-74
2022/08/17 02:05:02;;;;;;;;;;;;;;;19.14;90.60;100841.34;1023451;29;20302;-73
2022/08/17 02:05:34;;;;;;;;;;;;;;;19.18;90.83;100834.34;1019854;29;19923;-74
2022/08/17 02:06:06;;;;;;;;;;;;;;;19.09;90.74;100839.47;1017485;29;19939;-73
2022/08/17 02:06:57;;;;;;;;;;;;;;;19.07;90.18;100838.13;1019224;29;20326;-74
2022/08/17 02:07:30;;;;;;;;;;;;;;;19.10;90.76;100834.88;1023193;28;19922;-74
2022/08/17 02:08:19;;;;;;;;;;;;;;;19.19;89.88;100837.84;1026801;28;19926;-74
2022/08/17 02:08:50;;;;;;;;;;;;;;;18.97;89.99;100835.44;1027421;28;19922;-74
2022/08/17 02:09:33;;;;;;;;;;;;;;;18.99;90.81;100838.69;1023813;29;20386;-74
2022/08/17 02:10:08;;;;;;;;;;;;;;;18.98;91.10;100839.75;1023529;29;20081;-74
2022/08/17 02:10:50;;;;;;;;;;;;;;;19.00;92.55;100837.59;1023360;29;20314;-74
2022/08/17 02:11:23;;;;;;;;;;;;;;;18.99;92.88;100842.19;1023412;29;19922;-74
2022/08/17 02:11:54;;;;;;;;;;;;;;;19.01;93.02;100833.81;1023649;29;19922;-73
2022/08/17 02:12:26;;;;;;;;;;;;;;;18.97;92.65;100835.44;1023485;29;19922;-74
2022/08/17 02:13:09;;;;;;;;;;;;;;;18.94;92.57;100831.41;1022092;29;19923;-73
2022/08/17 02:13:41;;;;;;;;;;;;;;;18.92;93.21;100827.34;1019592;29;20006;-74
2022/08/17 02:14:13;;;;;;;;;;;;;;;18.93;92.19;100834.38;1019651;29;20306;-74
2022/08/17 02:14:45;;;;;;;;;;;;;;;18.92;92.28;100830.06;1022113;29;19923;-74
2022/08/17 02:15:16;;;;;;;;;;;;;;;18.94;92.51;100826.00;1023397;29;19922;-73
2022/08/17 02:15:48;;;;;;;;;;;;;;;18.93;92.28;100824.38;1019949;29;19927;-73
2022/08/17 02:16:19;;;;;;;;;;;;;;;18.95;92.57;100830.31;1016213;29;20375;-74
2022/08/17 02:16:51;;;;;;;;;;;;;;;18.90;91.66;100824.94;1019675;29;20303;-74
2022/08/17 02:17:22;;;;;;;;;;;;;;;18.93;92.25;100828.97;1020300;29;19931;-74
2022/08/17 02:17:54;;;;;;;;;;;;;;;18.78;92.30;100822.50;1024178;28;19922;-74
2022/08/17 02:18:25;;;;;;;;;;;;;;;18.83;92.16;100822.47;1024216;28;19930;-74
2022/08/17 02:18:57;;;;;;;;;;;;;;;18.81;92.03;100821.94;1023470;28;19929;-74
2022/08/17 02:19:29;;;;;;;;;;;;;;;18.81;92.05;100830.03;1024225;28;19929;-74
2022/08/17 02:20:01;;;;;;;;;;;;;;;18.85;92.53;100833.00;1023590;28;19922;-74
2022/08/17 02:20:34;;;;;;;;;;;;;;;18.87;92.35;100835.44;1023882;28;19923;-74
2022/08/17 02:21:13;;;;;;;;;;;;;;;18.86;92.46;100833.81;1019722;29;19923;-74
2022/08/17 02:21:45;;;;;;;;;;;;;;;18.84;92.69;100832.19;1019631;29;19930;-73
2022/08/17 02:22:17;;;;;;;;;;;;;;;18.86;92.90;100833.81;1019900;29;19933;-74
2022/08/17 02:22:49;;;;;;;;;;;;;;;18.81;92.18;100832.75;1020861;28;20383;-74
2022/08/17 02:23:21;;;;;;;;;;;;;;;18.67;92.57;100837.09;1015825;29;20006;-74
2022/08/17 02:23:52;;;;;;;;;;;;;;;18.68;92.30;100830.59;1015883;29;20406;-74
2022/08/17 02:24:30;;;;;;;;;;;;;;;18.69;92.36;100829.53;1015785;29;20307;-74
2022/08/17 02:25:21;;;;;;;;;;;;;;;18.73;92.16;100827.91;1023876;29;19945;-74
2022/08/17 02:25:54;;;;;;;;;;;;;;;18.70;91.80;100831.13;1018693;29;19922;-74
2022/08/17 02:26:26;;;;;;;;;;;;;;;18.73;92.24;100836.00;1019697;29;19923;-74
2022/08/17 02:26:57;;;;;;;;;;;;;;;18.66;92.57;100830.06;1021124;29;19923;-74
2022/08/17 02:27:29;;;;;;;;;;;;;;;18.59;92.20;100829.47;1020884;29;19930;-74
2022/08/17 02:28:01;;;;;;;;;;;;;;;18.49;93.01;100824.09;1023298;29;20410;-74
2022/08/17 02:28:32;;;;;;;;;;;;;;;18.46;92.95;100830.00;1019830;29;19930;-74
2022/08/17 02:29:04;;;;;;;;;;;;;;;18.50;93.07;100828.41;1020130;29;20004;-74
2022/08/17 02:29:36;;;;;;;;;;;;;;;18.52;92.80;100821.66;1020756;29;20347;-74
2022/08/17 02:30:08;;;;;;;;;;;;;;;18.49;92.64;100829.47;1020566;29;19929;-74
2022/08/17 02:31:06;;;;;;;;;;;;;;;18.49;91.98;100821.38;1019794;29;20302;-73
2022/08/17 02:31:38;;;;;;;;;;;;;;;18.52;92.06;100820.84;1019623;29;19922;-74
2022/08/17 02:32:16;;;;;;;;;;;;;;;18.57;91.71;100820.84;1019566;29;20402;-74
2022/08/17 02:32:58;;;;;;;;;;;;;;;18.57;91.81;100825.44;1019918;29;20297;-74
2022/08/17 02:33:34;;;;;;;;;;;;;;;18.60;91.86;100825.69;1019887;29;19922;-74
2022/08/17 02:34:14;;;;;;;;;;;;;;;18.52;91.33;100826.25;1026552;28;20305;-74
2022/08/17 02:34:46;;;;;;;;;;;;;;;18.40;91.91;100825.69;1027731;28;19922;-74
2022/08/17 02:35:17;;;;;;;;;;;;;;;18.36;92.39;100830.81;1025113;28;19922;-74
2022/08/17 02:35:52;;;;;;;;;;;;;;;18.33;92.18;100833.22;1019426;29;19971;-74
2022/08/17 02:36:24;;;;;;;;;;;;;;;18.34;92.88;100838.34;1020996;29;19930;-74
2022/08/17 02:36:57;;;;;;;;;;;;;;;18.27;93.21;100831.59;1021714;29;20048;-74
2022/08/17 02:37:29;;;;;;;;;;;;;;;18.28;92.92;100835.91;1020382;28;19954;-73
2022/08/17 02:38:01;;;;;;;;;;;;;;;18.27;93.08;100837.81;1023850;28;19923;-74
2022/08/17 02:38:32;;;;;;;;;;;;;;;18.37;93.04;100845.94;1019870;29;20410;-74
2022/08/17 02:39:05;;;;;;;;;;;;;;;18.38;92.81;100838.66;1019602;29;19927;-73
2022/08/17 02:39:37;;;;;;;;;;;;;;;18.44;93.21;100838.38;1018822;29;19930;-74
2022/08/17 02:40:09;;;;;;;;;;;;;;;18.53;92.63;100841.34;1016059;29;19945;-74
2022/08/17 02:40:41;;;;;;;;;;;;;;;18.45;92.51;100836.50;1015568;29;19923;-74
2022/08/17 02:41:15;;;;;;;;;;;;;;;18.66;92.16;100835.47;1016888;29;19930;-74
2022/08/17 02:41:47;;;;;;;;;;;;;;;18.42;92.22;100839.72;1020286;29;19926;-73
2022/08/17 02:42:21;;;;;;;;;;;;;;;18.54;92.10;100834.88;1023897;29;19934;-74
2022/08/17 02:42:52;;;;;;;;;;;;;;;18.73;91.67;100837.88;1025119;28;19967;-73
2022/08/17 02:43:25;;;;;;;;;;;;;;;18.78;91.08;100835.97;1027350;28;19921;-74
2022/08/17 02:43:57;;;;;;;;;;;;;;;18.88;91.02;100837.03;1027684;28;19925;-74
2022/08/17 02:44:29;;;;;;;;;;;;;;;18.74;90.77;100840.31;1023835;29;20314;-74
2022/08/17 02:45:16;;;;;;;;;;;;;;;18.83;90.68;100830.56;1019860;29;19977;-74
2022/08/17 02:45:48;;;;;;;;;;;;;;;18.86;90.80;100833.81;1019576;29;19926;-73
2022/08/17 02:46:21;;;;;;;;;;;;;;;18.88;90.83;100831.66;1022363;29;20382;-74
2022/08/17 02:46:52;;;;;;;;;;;;;;;18.89;90.25;100834.06;1023741;29;20325;-74
2022/08/17 02:47:24;;;;;;;;;;;;;;;18.91;89.91;100831.13;1023941;28;19945;-74
2022/08/17 02:47:55;;;;;;;;;;;;;;;18.94;90.46;100836.00;1029505;28;19929;-74
2022/08/17 02:48:27;;;;;;;;;;;;;;;18.93;90.22;100828.97;1027881;28;19929;-74
2022/08/17 02:49:02;;;;;;;;;;;;;;;18.91;90.00;100836.53;1027713;28;20285;-74
2022/08/17 02:49:34;;;;;;;;;;;;;;;18.93;90.24;100831.66;1027924;28;19922;-74
2022/08/17 02:50:06;;;;;;;;;;;;;;;18.87;90.61;100835.44;1028095;28;19929;-74
2022/08/17 02:50:38;;;;;;;;;;;;;;;18.88;89.88;100832.47;1028245;28;19945;-73
2022/08/17 02:51:10;;;;;;;;;;;;;;;18.82;90.55;100834.34;1027997;28;19930;-73
2022/08/17 02:51:41;;;;;;;;;;;;;;;18.67;90.73;100831.69;1028898;28;19922;-74
2022/08/17 02:52:13;;;;;;;;;;;;;;;18.65;91.62;100833.84;1024528;29;19945;-73
2022/08/17 02:52:45;;;;;;;;;;;;;;;18.64;91.42;100829.53;1024188;29;19929;-73
2022/08/17 02:53:32;;;;;;;;;;;;;;;18.43;91.99;100835.94;1020411;29;20402;-74
2022/08/17 02:54:06;;;;;;;;;;;;;;;18.43;93.13;100830.56;1023379;29;19989;-74
2022/08/17 02:54:58;;;;;;;;;;;;;;;18.50;93.19;100833.78;1025607;28;19922;-74
2022/08/17 02:55:31;;;;;;;;;;;;;;;18.50;92.73;100831.09;1028614;28;19929;-73
2022/08/17 02:56:03;;;;;;;;;;;;;;;18.49;92.67;100830.28;1026095;28;19922;-74
2022/08/17 02:56:34;;;;;;;;;;;;;;;18.40;92.02;100828.41;1028258;28;20428;-74